sensor_id;sensor_type;location;lat;lon;timestamp;temperature;humidity
32753;DHT22;19121;52.428;10.816;2023-08-30T00:01:11;23.10;54.10
32753;DHT22;19121;52.428;10.816;2023-08-30T00:03:37;23.10;54.10
32753;DHT22;19121;52.428;10.816;2023-08-30T00:06:06;23.10;54.10
32753;DHT22;19121;52.428;10.816;2023-08-30T00:08:34;23.10;54.20
32753;DHT22;19121;52.428;10.816;2023-08-30T00:11:00;23.10;54.20
32753;DHT22;19121;52.428;10.816;2023-08-30T00:13:29;23.10;54.20
32753;DHT22;19121;52.428;10.816;2023-08-30T00:15:54;23.10;54.20
32753;DHT22;19121;52.428;10.816;2023-08-30T00:18:20;23.10;54.20
32753;DHT22;19121;52.428;10.816;2023-08-30T00:20:45;23.10;54.20
32753;DHT22;19121;52.428;10.816;2023-08-30T00:23:11;23.10;54.20
32753;DHT22;19121;52.428;10.816;2023-08-30T00:25:36;23.10;54.30
32753;DHT22;19121;52.428;10.816;2023-08-30T00:28:02;23.10;54.20
32753;DHT22;19121;52.428;10.816;2023-08-30T00:30:27;23.10;54.30
32753;DHT22;19121;52.428;10.816;2023-08-30T00:32:53;23.10;54.30
32753;DHT22;19121;52.428;10.816;2023-08-30T00:35:18;23.10;54.30
32753;DHT22;19121;52.428;10.816;2023-08-30T00:37:43;23.10;54.30
32753;DHT22;19121;52.428;10.816;2023-08-30T00:40:09;23.10;54.30
32753;DHT22;19121;52.428;10.816;2023-08-30T00:42:34;23.10;54.30
32753;DHT22;19121;52.428;10.816;2023-08-30T00:45:00;23.00;54.20
32753;DHT22;19121;52.428;10.816;2023-08-30T00:47:25;23.00;54.20
32753;DHT22;19121;52.428;10.816;2023-08-30T00:49:51;23.00;54.20
32753;DHT22;19121;52.428;10.816;2023-08-30T00:52:16;23.10;54.30
32753;DHT22;19121;52.428;10.816;2023-08-30T00:54:42;23.00;54.20
32753;DHT22;19121;52.428;10.816;2023-08-30T00:57:07;23.00;54.20
32753;DHT22;19121;52.428;10.816;2023-08-30T00:59:33;23.00;54.20
32753;DHT22;19121;52.428;10.816;2023-08-30T01:01:59;23.00;54.30
32753;DHT22;19121;52.428;10.816;2023-08-30T01:04:24;23.00;54.20
32753;DHT22;19121;52.428;10.816;2023-08-30T01:06:50;23.00;54.30
32753;DHT22;19121;52.428;10.816;2023-08-30T01:09:16;23.00;54.30
32753;DHT22;19121;52.428;10.816;2023-08-30T01:12:00;23.00;54.30
32753;DHT22;19121;52.428;10.816;2023-08-30T01:14:31;23.00;54.30
32753;DHT22;19121;52.428;10.816;2023-08-30T01:16:59;23.00;54.30
32753;DHT22;19121;52.428;10.816;2023-08-30T01:19:41;23.00;54.30
32753;DHT22;19121;52.428;10.816;2023-08-30T01:22:15;22.90;54.30
32753;DHT22;19121;52.428;10.816;2023-08-30T01:25:00;23.00;54.30
32753;DHT22;19121;52.428;10.816;2023-08-30T01:27:25;22.90;54.30
32753;DHT22;19121;52.428;10.816;2023-08-30T01:29:52;23.00;54.30
32753;DHT22;19121;52.428;10.816;2023-08-30T01:32:18;23.00;54.40
32753;DHT22;19121;52.428;10.816;2023-08-30T01:34:45;22.90;54.30
32753;DHT22;19121;52.428;10.816;2023-08-30T01:37:12;22.90;54.30
32753;DHT22;19121;52.428;10.816;2023-08-30T01:39:39;22.90;54.30
32753;DHT22;19121;52.428;10.816;2023-08-30T01:42:06;22.90;54.30
32753;DHT22;19121;52.428;10.816;2023-08-30T01:44:32;22.90;54.30
32753;DHT22;19121;52.428;10.816;2023-08-30T01:46:58;22.90;54.30
32753;DHT22;19121;52.428;10.816;2023-08-30T01:49:24;22.90;54.30
32753;DHT22;19121;52.428;10.816;2023-08-30T01:51:50;22.90;54.30
32753;DHT22;19121;52.428;10.816;2023-08-30T01:54:17;22.90;54.30
32753;DHT22;19121;52.428;10.816;2023-08-30T01:56:42;22.90;54.30
32753;DHT22;19121;52.428;10.816;2023-08-30T01:59:08;22.90;54.30
32753;DHT22;19121;52.428;10.816;2023-08-30T02:01:33;22.90;54.30
32753;DHT22;19121;52.428;10.816;2023-08-30T02:03:59;22.80;54.30
32753;DHT22;19121;52.428;10.816;2023-08-30T02:09:19;22.90;54.30
32753;DHT22;19121;52.428;10.816;2023-08-30T02:11:46;22.90;54.30
32753;DHT22;19121;52.428;10.816;2023-08-30T02:14:14;22.90;54.30
32753;DHT22;19121;52.428;10.816;2023-08-30T02:16:42;22.90;54.30
32753;DHT22;19121;52.428;10.816;2023-08-30T02:19:08;22.90;54.20
32753;DHT22;19121;52.428;10.816;2023-08-30T02:21:33;22.90;54.30
32753;DHT22;19121;52.428;10.816;2023-08-30T02:23:59;22.80;54.20
32753;DHT22;19121;52.428;10.816;2023-08-30T02:26:24;22.80;54.30
32753;DHT22;19121;52.428;10.816;2023-08-30T02:28:50;22.80;54.30
32753;DHT22;19121;52.428;10.816;2023-08-30T02:31:15;22.80;54.20
32753;DHT22;19121;52.428;10.816;2023-08-30T02:33:40;22.80;54.30
32753;DHT22;19121;52.428;10.816;2023-08-30T02:36:06;22.80;54.20
32753;DHT22;19121;52.428;10.816;2023-08-30T02:38:33;22.80;54.20
32753;DHT22;19121;52.428;10.816;2023-08-30T02:40:58;22.80;54.30
32753;DHT22;19121;52.428;10.816;2023-08-30T02:43:24;22.80;54.30
32753;DHT22;19121;52.428;10.816;2023-08-30T02:45:49;22.80;54.30
32753;DHT22;19121;52.428;10.816;2023-08-30T02:48:14;22.80;54.20
32753;DHT22;19121;52.428;10.816;2023-08-30T02:50:40;22.80;54.20
32753;DHT22;19121;52.428;10.816;2023-08-30T02:53:06;22.80;54.30
32753;DHT22;19121;52.428;10.816;2023-08-30T02:55:34;22.80;54.20
32753;DHT22;19121;52.428;10.816;2023-08-30T02:57:59;22.80;54.20
32753;DHT22;19121;52.428;10.816;2023-08-30T03:00:25;22.80;54.30
32753;DHT22;19121;52.428;10.816;2023-08-30T03:02:50;22.80;54.30
32753;DHT22;19121;52.428;10.816;2023-08-30T03:05:16;22.80;54.30
32753;DHT22;19121;52.428;10.816;2023-08-30T03:07:41;22.80;54.30
32753;DHT22;19121;52.428;10.816;2023-08-30T03:10:07;22.70;54.20
32753;DHT22;19121;52.428;10.816;2023-08-30T03:12:32;22.80;54.30
32753;DHT22;19121;52.428;10.816;2023-08-30T03:14:58;22.80;54.30
32753;DHT22;19121;52.428;10.816;2023-08-30T03:17:23;22.80;54.30
32753;DHT22;19121;52.428;10.816;2023-08-30T03:19:51;22.70;54.30
32753;DHT22;19121;52.428;10.816;2023-08-30T03:22:16;22.70;54.20
32753;DHT22;19121;52.428;10.816;2023-08-30T03:24:42;22.70;54.20
32753;DHT22;19121;52.428;10.816;2023-08-30T03:27:07;22.70;54.20
32753;DHT22;19121;52.428;10.816;2023-08-30T03:29:33;22.80;54.30
32753;DHT22;19121;52.428;10.816;2023-08-30T03:31:58;22.70;54.20
32753;DHT22;19121;52.428;10.816;2023-08-30T03:34:24;22.70;54.20
32753;DHT22;19121;52.428;10.816;2023-08-30T03:36:49;22.70;54.20
32753;DHT22;19121;52.428;10.816;2023-08-30T03:39:20;22.80;54.30
32753;DHT22;19121;52.428;10.816;2023-08-30T03:41:45;22.70;54.20
32753;DHT22;19121;52.428;10.816;2023-08-30T03:44:10;22.70;54.20
32753;DHT22;19121;52.428;10.816;2023-08-30T03:46:36;22.70;54.10
32753;DHT22;19121;52.428;10.816;2023-08-30T03:49:02;22.70;54.10
32753;DHT22;19121;52.428;10.816;2023-08-30T03:51:29;22.70;54.10
32753;DHT22;19121;52.428;10.816;2023-08-30T03:53:54;22.70;54.20
32753;DHT22;19121;52.428;10.816;2023-08-30T03:56:21;22.70;54.20
32753;DHT22;19121;52.428;10.816;2023-08-30T03:58:47;22.70;54.20
32753;DHT22;19121;52.428;10.816;2023-08-30T04:01:12;22.70;54.20
32753;DHT22;19121;52.428;10.816;2023-08-30T04:03:37;22.70;54.20
32753;DHT22;19121;52.428;10.816;2023-08-30T04:06:03;22.70;54.20
32753;DHT22;19121;52.428;10.816;2023-08-30T04:08:28;22.70;54.20
32753;DHT22;19121;52.428;10.816;2023-08-30T04:10:54;22.70;54.20
32753;DHT22;19121;52.428;10.816;2023-08-30T04:13:19;22.70;54.20
32753;DHT22;19121;52.428;10.816;2023-08-30T04:15:45;22.60;54.20
32753;DHT22;19121;52.428;10.816;2023-08-30T04:18:10;22.70;54.30
32753;DHT22;19121;52.428;10.816;2023-08-30T04:20:36;22.70;54.30
32753;DHT22;19121;52.428;10.816;2023-08-30T04:23:01;22.70;54.30
32753;DHT22;19121;52.428;10.816;2023-08-30T04:25:27;22.60;54.20
32753;DHT22;19121;52.428;10.816;2023-08-30T04:27:53;22.70;54.20
32753;DHT22;19121;52.428;10.816;2023-08-30T04:30:18;22.70;54.30
32753;DHT22;19121;52.428;10.816;2023-08-30T04:32:44;22.70;54.30
32753;DHT22;19121;52.428;10.816;2023-08-30T04:35:09;22.60;54.20
32753;DHT22;19121;52.428;10.816;2023-08-30T04:37:35;22.60;54.30
32753;DHT22;19121;52.428;10.816;2023-08-30T04:40:00;22.60;54.30
32753;DHT22;19121;52.428;10.816;2023-08-30T04:42:26;22.60;54.30
32753;DHT22;19121;52.428;10.816;2023-08-30T04:44:51;22.60;54.30
32753;DHT22;19121;52.428;10.816;2023-08-30T04:47:17;22.60;54.30
32753;DHT22;19121;52.428;10.816;2023-08-30T04:49:43;22.60;54.40
32753;DHT22;19121;52.428;10.816;2023-08-30T04:52:08;22.60;54.40
32753;DHT22;19121;52.428;10.816;2023-08-30T04:54:33;22.60;54.40
32753;DHT22;19121;52.428;10.816;2023-08-30T04:56:59;22.50;54.40
32753;DHT22;19121;52.428;10.816;2023-08-30T04:59:24;22.50;54.40
32753;DHT22;19121;52.428;10.816;2023-08-30T05:01:50;22.60;54.50
32753;DHT22;19121;52.428;10.816;2023-08-30T05:04:17;22.50;54.40
32753;DHT22;19121;52.428;10.816;2023-08-30T05:06:42;22.50;54.40
32753;DHT22;19121;52.428;10.816;2023-08-30T05:09:08;22.50;54.40
32753;DHT22;19121;52.428;10.816;2023-08-30T05:11:34;22.50;54.40
32753;DHT22;19121;52.428;10.816;2023-08-30T05:13:59;22.50;54.40
32753;DHT22;19121;52.428;10.816;2023-08-30T05:16:24;22.50;54.40
32753;DHT22;19121;52.428;10.816;2023-08-30T05:18:50;22.50;54.40
32753;DHT22;19121;52.428;10.816;2023-08-30T05:21:15;22.50;54.40
32753;DHT22;19121;52.428;10.816;2023-08-30T05:23:41;22.60;54.40
32753;DHT22;19121;52.428;10.816;2023-08-30T05:26:10;22.50;54.40
32753;DHT22;19121;52.428;10.816;2023-08-30T05:28:38;22.50;54.40
32753;DHT22;19121;52.428;10.816;2023-08-30T05:31:03;22.60;54.40
32753;DHT22;19121;52.428;10.816;2023-08-30T05:33:29;22.60;54.40
32753;DHT22;19121;52.428;10.816;2023-08-30T05:35:54;22.60;54.40
32753;DHT22;19121;52.428;10.816;2023-08-30T05:38:20;22.50;54.40
32753;DHT22;19121;52.428;10.816;2023-08-30T05:40:45;22.50;54.40
32753;DHT22;19121;52.428;10.816;2023-08-30T05:43:11;22.60;54.50
32753;DHT22;19121;52.428;10.816;2023-08-30T05:45:36;22.60;54.40
32753;DHT22;19121;52.428;10.816;2023-08-30T05:48:02;22.60;54.40
32753;DHT22;19121;52.428;10.816;2023-08-30T05:50:28;22.60;54.40
32753;DHT22;19121;52.428;10.816;2023-08-30T05:52:53;22.60;54.30
32753;DHT22;19121;52.428;10.816;2023-08-30T05:55:19;22.60;54.00
32753;DHT22;19121;52.428;10.816;2023-08-30T05:57:44;22.60;53.80
32753;DHT22;19121;52.428;10.816;2023-08-30T06:00:10;22.70;53.60
32753;DHT22;19121;52.428;10.816;2023-08-30T06:02:36;22.70;53.50
32753;DHT22;19121;52.428;10.816;2023-08-30T06:05:01;22.70;53.20
32753;DHT22;19121;52.428;10.816;2023-08-30T06:07:28;22.80;53.00
32753;DHT22;19121;52.428;10.816;2023-08-30T06:09:53;22.80;52.50
32753;DHT22;19121;52.428;10.816;2023-08-30T06:12:18;22.80;52.40
32753;DHT22;19121;52.428;10.816;2023-08-30T06:14:44;22.70;52.10
32753;DHT22;19121;52.428;10.816;2023-08-30T06:17:15;22.70;52.20
32753;DHT22;19121;52.428;10.816;2023-08-30T06:19:41;22.60;52.30
32753;DHT22;19121;52.428;10.816;2023-08-30T06:22:07;22.60;53.40
32753;DHT22;19121;52.428;10.816;2023-08-30T06:24:32;22.70;52.80
32753;DHT22;19121;52.428;10.816;2023-08-30T06:26:58;22.70;52.80
32753;DHT22;19121;52.428;10.816;2023-08-30T06:29:25;22.80;52.70
32753;DHT22;19121;52.428;10.816;2023-08-30T06:31:50;22.80;52.60
32753;DHT22;19121;52.428;10.816;2023-08-30T06:34:16;22.80;52.60
32753;DHT22;19121;52.428;10.816;2023-08-30T06:36:41;22.90;52.30
32753;DHT22;19121;52.428;10.816;2023-08-30T06:39:07;22.90;52.40
32753;DHT22;19121;52.428;10.816;2023-08-30T06:41:32;22.90;52.30
32753;DHT22;19121;52.428;10.816;2023-08-30T06:43:57;22.90;52.40
32753;DHT22;19121;52.428;10.816;2023-08-30T06:46:23;22.90;52.50
32753;DHT22;19121;52.428;10.816;2023-08-30T06:48:48;23.00;52.60
32753;DHT22;19121;52.428;10.816;2023-08-30T06:51:14;23.00;52.50
32753;DHT22;19121;52.428;10.816;2023-08-30T06:53:39;23.10;52.60
32753;DHT22;19121;52.428;10.816;2023-08-30T06:56:05;23.10;52.40
32753;DHT22;19121;52.428;10.816;2023-08-30T06:58:30;23.20;52.30
32753;DHT22;19121;52.428;10.816;2023-08-30T07:00:59;23.20;52.20
32753;DHT22;19121;52.428;10.816;2023-08-30T07:03:24;23.30;52.10
32753;DHT22;19121;52.428;10.816;2023-08-30T07:05:53;23.30;52.10
32753;DHT22;19121;52.428;10.816;2023-08-30T07:08:18;23.30;52.40
32753;DHT22;19121;52.428;10.816;2023-08-30T07:10:44;23.30;51.80
32753;DHT22;19121;52.428;10.816;2023-08-30T07:13:09;23.30;51.70
32753;DHT22;19121;52.428;10.816;2023-08-30T07:15:38;23.30;51.70
32753;DHT22;19121;52.428;10.816;2023-08-30T07:18:05;23.30;52.00
32753;DHT22;19121;52.428;10.816;2023-08-30T07:20:31;23.30;52.10
32753;DHT22;19121;52.428;10.816;2023-08-30T07:22:56;23.30;51.90
32753;DHT22;19121;52.428;10.816;2023-08-30T07:25:22;23.40;51.90
32753;DHT22;19121;52.428;10.816;2023-08-30T07:27:47;23.40;51.60
32753;DHT22;19121;52.428;10.816;2023-08-30T07:30:13;23.40;51.70
32753;DHT22;19121;52.428;10.816;2023-08-30T07:32:38;23.40;51.60
32753;DHT22;19121;52.428;10.816;2023-08-30T07:35:04;23.40;51.60
32753;DHT22;19121;52.428;10.816;2023-08-30T07:37:29;23.30;51.60
32753;DHT22;19121;52.428;10.816;2023-08-30T07:39:55;23.40;51.80
32753;DHT22;19121;52.428;10.816;2023-08-30T07:42:20;23.40;51.70
32753;DHT22;19121;52.428;10.816;2023-08-30T07:44:45;23.40;51.50
32753;DHT22;19121;52.428;10.816;2023-08-30T07:47:11;23.50;51.60
32753;DHT22;19121;52.428;10.816;2023-08-30T07:49:36;23.50;51.70
32753;DHT22;19121;52.428;10.816;2023-08-30T07:52:02;23.50;51.70
32753;DHT22;19121;52.428;10.816;2023-08-30T07:54:27;23.50;51.70
32753;DHT22;19121;52.428;10.816;2023-08-30T07:56:53;23.60;51.70
32753;DHT22;19121;52.428;10.816;2023-08-30T07:59:18;23.60;51.50
32753;DHT22;19121;52.428;10.816;2023-08-30T08:01:44;23.60;51.50
32753;DHT22;19121;52.428;10.816;2023-08-30T08:04:09;23.60;51.50
32753;DHT22;19121;52.428;10.816;2023-08-30T08:06:35;23.60;51.60
32753;DHT22;19121;52.428;10.816;2023-08-30T08:09:00;23.60;51.60
32753;DHT22;19121;52.428;10.816;2023-08-30T08:11:26;23.60;51.50
32753;DHT22;19121;52.428;10.816;2023-08-30T08:13:51;23.60;51.50
32753;DHT22;19121;52.428;10.816;2023-08-30T08:16:17;23.60;51.60
32753;DHT22;19121;52.428;10.816;2023-08-30T08:18:42;23.60;51.50
32753;DHT22;19121;52.428;10.816;2023-08-30T08:21:08;23.60;51.40
32753;DHT22;19121;52.428;10.816;2023-08-30T08:23:33;23.60;51.50
32753;DHT22;19121;52.428;10.816;2023-08-30T08:25:59;23.60;51.40
32753;DHT22;19121;52.428;10.816;2023-08-30T08:28:24;23.60;51.40
32753;DHT22;19121;52.428;10.816;2023-08-30T08:30:50;23.60;51.30
32753;DHT22;19121;52.428;10.816;2023-08-30T08:33:16;23.60;51.20
32753;DHT22;19121;52.428;10.816;2023-08-30T08:35:42;23.60;51.10
32753;DHT22;19121;52.428;10.816;2023-08-30T08:38:07;23.70;51.20
32753;DHT22;19121;52.428;10.816;2023-08-30T08:40:36;23.70;51.20
32753;DHT22;19121;52.428;10.816;2023-08-30T08:43:01;23.70;51.30
32753;DHT22;19121;52.428;10.816;2023-08-30T08:45:27;23.70;51.30
32753;DHT22;19121;52.428;10.816;2023-08-30T08:47:53;23.70;51.30
32753;DHT22;19121;52.428;10.816;2023-08-30T08:50:19;23.70;51.20
32753;DHT22;19121;52.428;10.816;2023-08-30T08:52:45;23.70;51.00
32753;DHT22;19121;52.428;10.816;2023-08-30T08:55:11;23.70;51.00
32753;DHT22;19121;52.428;10.816;2023-08-30T08:57:37;23.70;51.10
32753;DHT22;19121;52.428;10.816;2023-08-30T09:00:03;23.70;51.00
32753;DHT22;19121;52.428;10.816;2023-08-30T09:02:29;23.70;51.10
32753;DHT22;19121;52.428;10.816;2023-08-30T09:04:54;23.70;51.00
32753;DHT22;19121;52.428;10.816;2023-08-30T09:07:20;23.70;51.00
32753;DHT22;19121;52.428;10.816;2023-08-30T09:09:46;23.80;50.90
32753;DHT22;19121;52.428;10.816;2023-08-30T09:12:12;23.80;50.50
32753;DHT22;19121;52.428;10.816;2023-08-30T09:14:37;23.80;50.70
32753;DHT22;19121;52.428;10.816;2023-08-30T09:17:03;23.80;50.80
32753;DHT22;19121;52.428;10.816;2023-08-30T09:19:28;23.80;50.70
32753;DHT22;19121;52.428;10.816;2023-08-30T09:21:55;23.70;49.80
32753;DHT22;19121;52.428;10.816;2023-08-30T09:24:21;23.60;50.00
32753;DHT22;19121;52.428;10.816;2023-08-30T09:26:48;23.60;50.20
32753;DHT22;19121;52.428;10.816;2023-08-30T09:29:16;23.60;50.00
32753;DHT22;19121;52.428;10.816;2023-08-30T09:31:41;23.70;50.30
32753;DHT22;19121;52.428;10.816;2023-08-30T09:34:07;23.70;50.10
32753;DHT22;19121;52.428;10.816;2023-08-30T09:36:36;23.70;50.10
32753;DHT22;19121;52.428;10.816;2023-08-30T09:39:08;23.70;50.20
32753;DHT22;19121;52.428;10.816;2023-08-30T09:41:40;23.70;50.10
32753;DHT22;19121;52.428;10.816;2023-08-30T09:44:12;23.70;50.50
32753;DHT22;19121;52.428;10.816;2023-08-30T09:49:12;23.70;51.10
32753;DHT22;19121;52.428;10.816;2023-08-30T09:51:39;23.70;50.60
32753;DHT22;19121;52.428;10.816;2023-08-30T09:54:15;23.70;49.90
32753;DHT22;19121;52.428;10.816;2023-08-30T09:56:43;23.70;50.20
32753;DHT22;19121;52.428;10.816;2023-08-30T09:59:12;23.80;50.40
32753;DHT22;19121;52.428;10.816;2023-08-30T10:01:40;23.80;50.40
32753;DHT22;19121;52.428;10.816;2023-08-30T10:04:07;23.80;50.20
32753;DHT22;19121;52.428;10.816;2023-08-30T10:06:32;23.80;49.50
32753;DHT22;19121;52.428;10.816;2023-08-30T10:08:58;23.70;49.70
32753;DHT22;19121;52.428;10.816;2023-08-30T10:11:24;23.70;49.80
32753;DHT22;19121;52.428;10.816;2023-08-30T10:13:51;23.80;50.10
32753;DHT22;19121;52.428;10.816;2023-08-30T10:16:18;23.80;50.40
32753;DHT22;19121;52.428;10.816;2023-08-30T10:18:46;23.80;49.90
32753;DHT22;19121;52.428;10.816;2023-08-30T10:21:12;23.80;49.70
32753;DHT22;19121;52.428;10.816;2023-08-30T10:23:38;23.80;49.80
32753;DHT22;19121;52.428;10.816;2023-08-30T10:26:04;23.80;49.20
32753;DHT22;19121;52.428;10.816;2023-08-30T10:28:30;23.80;48.50
32753;DHT22;19121;52.428;10.816;2023-08-30T10:30:56;23.80;49.10
32753;DHT22;19121;52.428;10.816;2023-08-30T10:33:22;23.80;49.00
32753;DHT22;19121;52.428;10.816;2023-08-30T10:35:51;23.80;49.00
32753;DHT22;19121;52.428;10.816;2023-08-30T10:38:26;23.80;49.10
32753;DHT22;19121;52.428;10.816;2023-08-30T10:40:55;23.80;49.10
32753;DHT22;19121;52.428;10.816;2023-08-30T10:43:30;23.80;48.90
32753;DHT22;19121;52.428;10.816;2023-08-30T10:45:59;23.80;48.80
32753;DHT22;19121;52.428;10.816;2023-08-30T10:48:33;23.80;48.70
32753;DHT22;19121;52.428;10.816;2023-08-30T10:50:59;23.80;48.80
32753;DHT22;19121;52.428;10.816;2023-08-30T10:53:28;23.80;48.80
32753;DHT22;19121;52.428;10.816;2023-08-30T10:56:06;23.80;48.80
32753;DHT22;19121;52.428;10.816;2023-08-30T10:58:38;23.80;48.80
32753;DHT22;19121;52.428;10.816;2023-08-30T11:01:04;23.90;48.90
32753;DHT22;19121;52.428;10.816;2023-08-30T11:03:31;23.90;49.10
32753;DHT22;19121;52.428;10.816;2023-08-30T11:05:57;23.90;49.10
32753;DHT22;19121;52.428;10.816;2023-08-30T11:08:27;24.00;48.90
32753;DHT22;19121;52.428;10.816;2023-08-30T11:11:01;23.90;49.10
32753;DHT22;19121;52.428;10.816;2023-08-30T11:13:27;24.00;49.30
32753;DHT22;19121;52.428;10.816;2023-08-30T11:15:53;24.00;49.50
32753;DHT22;19121;52.428;10.816;2023-08-30T11:18:19;24.00;48.90
32753;DHT22;19121;52.428;10.816;2023-08-30T11:20:44;24.00;48.80
32753;DHT22;19121;52.428;10.816;2023-08-30T11:23:10;24.00;48.60
32753;DHT22;19121;52.428;10.816;2023-08-30T11:25:35;24.00;48.60
32753;DHT22;19121;52.428;10.816;2023-08-30T11:28:03;24.10;48.40
32753;DHT22;19121;52.428;10.816;2023-08-30T11:30:29;24.00;48.40
32753;DHT22;19121;52.428;10.816;2023-08-30T11:32:54;24.00;48.30
32753;DHT22;19121;52.428;10.816;2023-08-30T11:35:22;24.10;48.20
32753;DHT22;19121;52.428;10.816;2023-08-30T11:37:48;24.10;48.20
32753;DHT22;19121;52.428;10.816;2023-08-30T11:40:13;24.10;48.30
32753;DHT22;19121;52.428;10.816;2023-08-30T11:42:39;24.10;48.60
32753;DHT22;19121;52.428;10.816;2023-08-30T11:45:05;24.10;48.80
32753;DHT22;19121;52.428;10.816;2023-08-30T11:47:30;24.10;48.90
32753;DHT22;19121;52.428;10.816;2023-08-30T11:49:56;24.10;49.00
32753;DHT22;19121;52.428;10.816;2023-08-30T11:52:25;24.10;49.00
32753;DHT22;19121;52.428;10.816;2023-08-30T11:54:51;24.10;49.10
32753;DHT22;19121;52.428;10.816;2023-08-30T11:57:16;24.10;49.10
32753;DHT22;19121;52.428;10.816;2023-08-30T11:59:42;24.10;49.20
32753;DHT22;19121;52.428;10.816;2023-08-30T12:02:07;24.20;49.20
32753;DHT22;19121;52.428;10.816;2023-08-30T12:04:40;24.20;48.50
32753;DHT22;19121;52.428;10.816;2023-08-30T12:07:07;24.20;48.40
32753;DHT22;19121;52.428;10.816;2023-08-30T12:09:32;24.20;48.50
32753;DHT22;19121;52.428;10.816;2023-08-30T12:12:10;24.20;48.70
32753;DHT22;19121;52.428;10.816;2023-08-30T12:14:36;24.20;48.80
32753;DHT22;19121;52.428;10.816;2023-08-30T12:17:02;24.30;49.40
32753;DHT22;19121;52.428;10.816;2023-08-30T12:19:28;24.30;48.70
32753;DHT22;19121;52.428;10.816;2023-08-30T12:21:54;24.30;48.30
32753;DHT22;19121;52.428;10.816;2023-08-30T12:24:19;24.20;48.40
32753;DHT22;19121;52.428;10.816;2023-08-30T12:26:45;24.20;48.40
32753;DHT22;19121;52.428;10.816;2023-08-30T12:29:10;24.20;48.30
32753;DHT22;19121;52.428;10.816;2023-08-30T12:31:36;24.20;48.30
32753;DHT22;19121;52.428;10.816;2023-08-30T12:34:02;24.20;48.20
32753;DHT22;19121;52.428;10.816;2023-08-30T12:36:28;24.20;48.20
32753;DHT22;19121;52.428;10.816;2023-08-30T12:38:53;24.10;48.20
32753;DHT22;19121;52.428;10.816;2023-08-30T12:41:19;24.20;48.30
32753;DHT22;19121;52.428;10.816;2023-08-30T12:43:46;24.10;48.20
32753;DHT22;19121;52.428;10.816;2023-08-30T12:46:12;24.20;48.30
32753;DHT22;19121;52.428;10.816;2023-08-30T12:48:37;24.10;48.20
32753;DHT22;19121;52.428;10.816;2023-08-30T12:51:03;24.10;48.20
32753;DHT22;19121;52.428;10.816;2023-08-30T12:53:28;24.20;48.20
32753;DHT22;19121;52.428;10.816;2023-08-30T12:55:54;24.20;48.20
32753;DHT22;19121;52.428;10.816;2023-08-30T12:58:19;24.10;48.20
32753;DHT22;19121;52.428;10.816;2023-08-30T13:00:45;24.20;48.20
32753;DHT22;19121;52.428;10.816;2023-08-30T13:03:10;24.10;48.20
32753;DHT22;19121;52.428;10.816;2023-08-30T13:05:35;24.10;48.20
32753;DHT22;19121;52.428;10.816;2023-08-30T13:08:01;24.10;48.20
32753;DHT22;19121;52.428;10.816;2023-08-30T13:10:27;24.10;48.30
32753;DHT22;19121;52.428;10.816;2023-08-30T13:12:53;24.10;48.30
32753;DHT22;19121;52.428;10.816;2023-08-30T13:15:18;24.10;48.30
32753;DHT22;19121;52.428;10.816;2023-08-30T13:17:44;24.20;48.40
32753;DHT22;19121;52.428;10.816;2023-08-30T13:20:09;24.20;48.50
32753;DHT22;19121;52.428;10.816;2023-08-30T13:22:35;24.20;48.50
32753;DHT22;19121;52.428;10.816;2023-08-30T13:25:01;24.20;48.30
32753;DHT22;19121;52.428;10.816;2023-08-30T13:27:28;24.20;48.50
32753;DHT22;19121;52.428;10.816;2023-08-30T13:29:54;24.10;48.10
32753;DHT22;19121;52.428;10.816;2023-08-30T13:32:19;24.00;47.90
32753;DHT22;19121;52.428;10.816;2023-08-30T13:34:44;24.10;48.10
32753;DHT22;19121;52.428;10.816;2023-08-30T13:37:11;24.00;48.00
32753;DHT22;19121;52.428;10.816;2023-08-30T13:39:37;24.00;48.20
32753;DHT22;19121;52.428;10.816;2023-08-30T13:42:03;24.00;48.00
32753;DHT22;19121;52.428;10.816;2023-08-30T13:44:28;24.00;48.20
32753;DHT22;19121;52.428;10.816;2023-08-30T13:46:53;24.00;48.20
32753;DHT22;19121;52.428;10.816;2023-08-30T13:49:19;24.00;48.10
32753;DHT22;19121;52.428;10.816;2023-08-30T13:51:45;24.00;47.90
32753;DHT22;19121;52.428;10.816;2023-08-30T13:54:11;24.10;47.90
32753;DHT22;19121;52.428;10.816;2023-08-30T13:56:36;24.10;47.70
32753;DHT22;19121;52.428;10.816;2023-08-30T13:59:03;24.10;47.50
32753;DHT22;19121;52.428;10.816;2023-08-30T14:01:31;24.00;47.50
32753;DHT22;19121;52.428;10.816;2023-08-30T14:03:56;24.10;47.40
32753;DHT22;19121;52.428;10.816;2023-08-30T14:06:21;24.10;47.50
32753;DHT22;19121;52.428;10.816;2023-08-30T14:08:47;24.10;47.50
32753;DHT22;19121;52.428;10.816;2023-08-30T14:11:12;24.10;47.40
32753;DHT22;19121;52.428;10.816;2023-08-30T14:13:39;24.10;47.40
32753;DHT22;19121;52.428;10.816;2023-08-30T14:16:04;24.10;47.30
32753;DHT22;19121;52.428;10.816;2023-08-30T14:18:30;24.10;47.20
32753;DHT22;19121;52.428;10.816;2023-08-30T14:20:56;24.10;47.30
32753;DHT22;19121;52.428;10.816;2023-08-30T14:23:24;24.10;47.30
32753;DHT22;19121;52.428;10.816;2023-08-30T14:25:59;24.10;47.20
32753;DHT22;19121;52.428;10.816;2023-08-30T14:28:25;24.10;47.20
32753;DHT22;19121;52.428;10.816;2023-08-30T14:30:51;24.10;47.20
32753;DHT22;19121;52.428;10.816;2023-08-30T14:33:16;24.10;47.20
32753;DHT22;19121;52.428;10.816;2023-08-30T14:35:42;24.10;47.40
32753;DHT22;19121;52.428;10.816;2023-08-30T14:38:07;24.10;47.50
32753;DHT22;19121;52.428;10.816;2023-08-30T14:40:33;24.00;47.50
32753;DHT22;19121;52.428;10.816;2023-08-30T14:42:58;24.10;47.50
32753;DHT22;19121;52.428;10.816;2023-08-30T14:45:23;24.10;47.50
32753;DHT22;19121;52.428;10.816;2023-08-30T14:47:49;24.10;47.50
32753;DHT22;19121;52.428;10.816;2023-08-30T14:50:14;24.10;47.60
32753;DHT22;19121;52.428;10.816;2023-08-30T14:52:40;24.10;47.60
32753;DHT22;19121;52.428;10.816;2023-08-30T14:55:05;24.10;47.80
32753;DHT22;19121;52.428;10.816;2023-08-30T14:57:31;24.00;47.80
32753;DHT22;19121;52.428;10.816;2023-08-30T14:59:57;24.10;47.90
32753;DHT22;19121;52.428;10.816;2023-08-30T15:02:22;24.10;48.00
32753;DHT22;19121;52.428;10.816;2023-08-30T15:04:48;24.00;48.10
32753;DHT22;19121;52.428;10.816;2023-08-30T15:07:13;24.10;48.20
32753;DHT22;19121;52.428;10.816;2023-08-30T15:09:38;24.00;48.20
32753;DHT22;19121;52.428;10.816;2023-08-30T15:12:04;24.10;48.30
32753;DHT22;19121;52.428;10.816;2023-08-30T15:14:31;24.10;48.40